Hovedside
METAR-TAF:

METAR-TAF

Lufthavner :

Arvidsjaur, Sverige

Arvidsjaur lufthavn

breddegrad: 65-35-25N, lengdegrad: 019-16-55E, høyde over havet: 379 m

Gjeldene værobservasjon

Denne rapporten ble laget for 1 time og 10 minutter siden, klokken 09:50 UTC
Vind 12 kt fra Nord-nordvest
Temperatur -1°C
Luftfuktighet 69%
Trykk 1005 hPa
Sikt 10 km eller mer
Spredte skyer i en høyde av 2100 ft
Overskyet i en høyde av 2700 ft

METAR: ESNX 270950Z 34012KT 9999 SCT021 OVC027 M01/M06 Q1005

Tid: 13:00 (11:00 UTC)

Varsel

Denne rapporten ble laget for 2 timer og 30 minutter siden, klokken 08:30 UTC
Varsel gyldig fra 27. klokken 09 UTC til 27. klokken 11 UTC
Vind 12 kt fra Nord
Sikt 10 km eller mer
Spredte skyer i en høyde av 3000 ft

TAF: ESNX 270830Z 2709/2711 36012KT 9999 SCT030

Værobservasjoner og værvarsel for over 4000 flyplasser (METAR- og TAF-rapporter).

Tilgjengelige stasjoner er representert av de røde og gule prikkene på kartet.

Hold musepekeren over prikken for å se navnet på stasjonen.

Klikk så for å se værobservasjoner og -varsler.

For å forandre kartet kan du klikke på den grønne knappen med svart kryss for å zoome inn, på den grønne knappen med strek for å zoome ut, eller på de grønne pilene for å se tilstøtende kart.


METAR-TAF: